createdAt,value
2019-04-04T00:01:48.824Z,68.76
2019-04-04T00:04:18.345Z,68.72
2019-04-04T00:06:46.968Z,69.69
2019-04-04T00:09:15.578Z,71.05
2019-04-04T00:11:44.196Z,70.99
2019-04-04T00:14:13.447Z,70.39
2019-04-04T00:16:42.110Z,69.23
2019-04-04T00:19:10.739Z,68.84
2019-04-04T00:21:39.313Z,68.44
2019-04-04T00:24:09.173Z,68.74
2019-04-04T00:26:38.232Z,70.08
2019-04-04T00:29:06.812Z,70.51
2019-04-04T00:31:35.390Z,69.88
2019-04-04T00:34:03.949Z,69.79
2019-04-04T00:36:34.706Z,70.57
2019-04-04T00:39:03.709Z,69.71
2019-04-04T00:41:32.318Z,68.88
2019-04-04T00:44:00.847Z,69.44
2019-04-04T00:46:30.969Z,71.61
2019-04-04T00:49:00.031Z,70.40
2019-04-04T00:51:28.540Z,70.13
2019-04-04T00:53:57.184Z,70.27
2019-04-04T00:56:25.704Z,68.37
2019-04-04T00:58:54.190Z,68.83
2019-04-04T01:01:26.036Z,69.38
2019-04-04T01:03:52.872Z,69.81
2019-04-04T01:06:21.407Z,69.48
2019-04-04T01:08:50.010Z,70.57
2019-04-04T01:11:20.296Z,69.94
2019-04-04T01:13:49.503Z,70.21
2019-04-04T01:16:18.101Z,70.35
2019-04-04T01:18:46.694Z,71.25
2019-04-04T01:21:15.216Z,78.89
2019-04-04T01:23:43.752Z,71.59
2019-04-04T01:26:12.356Z,69.37
2019-04-04T01:28:40.930Z,68.53
2019-04-04T01:31:09.549Z,70.46
2019-04-04T01:33:38.106Z,70.79
2019-04-04T01:36:06.645Z,71.60
2019-04-04T01:38:35.146Z,71.54
2019-04-04T01:41:04.527Z,71.24
2019-04-04T01:43:33.625Z,70.99
2019-04-04T01:46:02.179Z,70.61
2019-04-04T01:48:30.701Z,70.70
2019-04-04T01:50:59.236Z,69.86
2019-04-04T01:53:29.855Z,68.95
2019-04-04T01:55:58.100Z,71.48
2019-04-04T01:58:26.611Z,74.62
2019-04-04T02:00:55.286Z,70.57
2019-04-04T02:03:23.886Z,70.47
2019-04-04T02:05:52.808Z,70.03
2019-04-04T02:08:21.422Z,70.85
2019-04-04T02:10:50.471Z,71.07
2019-04-04T02:13:19.047Z,71.02
2019-04-04T02:15:47.559Z,70.64
2019-04-04T02:18:16.109Z,70.49
2019-04-04T02:20:44.739Z,70.07
2019-04-04T02:23:13.266Z,69.64
2019-04-04T02:25:41.803Z,70.72
2019-04-04T02:28:10.330Z,69.94
2019-04-04T02:30:39.004Z,69.68
2019-04-04T02:33:07.706Z,75.05
2019-04-04T02:35:36.296Z,69.76
2019-04-04T02:38:04.910Z,68.70
2019-04-04T02:40:33.504Z,69.33
2019-04-04T02:43:02.218Z,70.78
2019-04-04T02:45:30.811Z,71.27
2019-04-04T02:47:59.374Z,70.94
2019-04-04T02:50:27.926Z,70.32
2019-04-04T02:52:56.480Z,69.80
2019-04-04T02:55:24.999Z,69.84
2019-04-04T02:57:53.566Z,70.04
2019-04-04T03:00:26.448Z,70.60
2019-04-04T03:02:52.430Z,70.29
2019-04-04T03:05:21.587Z,69.37
2019-04-04T03:07:50.292Z,70.83
2019-04-04T03:10:18.806Z,71.68
2019-04-04T03:12:47.515Z,68.28
2019-04-04T03:15:16.211Z,68.76
2019-04-04T03:17:44.803Z,69.02
2019-04-04T03:20:16.285Z,70.92
2019-04-04T03:22:43.729Z,71.76
2019-04-04T03:25:14.915Z,71.10
2019-04-04T03:27:42.632Z,71.08
2019-04-04T03:30:14.864Z,71.01
2019-04-04T03:32:41.730Z,70.57
2019-04-04T03:35:10.366Z,69.60
2019-04-04T03:37:40.984Z,69.27
2019-04-04T03:40:09.338Z,70.66
2019-04-04T03:42:37.844Z,71.34
2019-04-04T03:45:07.032Z,75.11
2019-04-04T03:47:35.636Z,73.21
2019-04-04T03:50:05.915Z,72.16
2019-04-04T03:52:34.402Z,70.82
2019-04-04T03:55:03.101Z,70.44
2019-04-04T03:57:31.647Z,72.18
2019-04-04T04:00:00.122Z,72.39
2019-04-04T04:02:29.560Z,72.38
2019-04-04T04:05:01.003Z,71.53
2019-04-04T04:07:28.450Z,70.85
2019-04-04T04:09:59.660Z,70.97
2019-04-04T04:12:27.455Z,70.37
2019-04-04T04:14:56.009Z,69.66
2019-04-04T04:17:24.629Z,69.17
2019-04-04T04:19:53.280Z,73.09
2019-04-04T04:22:22.816Z,72.96
2019-04-04T04:24:51.454Z,69.82
2019-04-04T04:27:19.965Z,71.01
2019-04-04T04:29:48.471Z,71.25
2019-04-04T04:32:21.095Z,71.27
2019-04-04T04:34:47.168Z,71.58
2019-04-04T04:37:20.085Z,71.10
2019-04-04T04:39:45.884Z,71.01
2019-04-04T04:42:14.438Z,70.77
2019-04-04T04:44:42.942Z,70.32
2019-04-04T04:47:11.495Z,69.85
2019-04-04T04:49:39.999Z,69.55
2019-04-04T04:52:08.467Z,70.39
2019-04-04T04:54:36.995Z,71.77
2019-04-04T04:57:05.560Z,75.97
2019-04-04T04:59:34.102Z,73.39
2019-04-04T05:02:02.732Z,71.05
2019-04-04T05:04:31.258Z,70.51
2019-04-04T05:06:59.765Z,71.53
2019-04-04T05:09:28.231Z,71.18
2019-04-04T05:11:56.759Z,71.19
2019-04-04T05:14:25.223Z,70.59
2019-04-04T05:16:53.768Z,70.68
2019-04-04T05:19:22.340Z,70.57
2019-04-04T05:21:50.959Z,70.06
2019-04-04T05:24:19.571Z,70.70
2019-04-04T05:26:48.150Z,70.61
2019-04-04T05:29:16.896Z,70.11
2019-04-04T05:31:45.471Z,72.66
2019-04-04T05:34:14.127Z,74.36
2019-04-04T05:36:42.654Z,72.62
2019-04-04T05:39:11.131Z,70.99
2019-04-04T05:41:39.637Z,70.06
2019-04-04T05:44:09.954Z,70.99
2019-04-04T05:46:38.591Z,70.91
2019-04-04T05:49:08.292Z,71.06
2019-04-04T05:51:37.049Z,70.46
2019-04-04T05:54:07.529Z,69.94
2019-04-04T05:56:36.004Z,69.58
2019-04-04T05:59:04.610Z,69.19
2019-04-04T06:01:35.330Z,68.89
2019-04-04T06:04:04.111Z,68.62
2019-04-04T06:06:33.478Z,70.28
2019-04-04T06:09:04.519Z,72.04
2019-04-04T06:11:33.204Z,70.73
2019-04-04T06:14:01.865Z,69.31
2019-04-04T06:16:30.454Z,69.06
2019-04-04T06:18:58.847Z,69.51
2019-04-04T06:21:27.484Z,70.31
2019-04-04T06:23:56.672Z,70.30
2019-04-04T06:26:25.427Z,69.82
2019-04-04T06:28:53.877Z,69.57
2019-04-04T06:31:24.144Z,69.35
2019-04-04T06:33:52.615Z,69.10
2019-04-04T06:36:21.154Z,69.16
2019-04-04T06:38:50.066Z,69.53
2019-04-04T06:41:18.702Z,70.01
2019-04-04T06:43:47.342Z,71.31
2019-04-04T06:46:18.986Z,71.36
2019-04-04T06:48:46.152Z,70.49
2019-04-04T06:51:15.013Z,70.32
2019-04-04T06:53:46.649Z,68.92
2019-04-04T06:56:13.989Z,69.45
2019-04-04T06:58:42.573Z,70.01
2019-04-04T07:01:11.357Z,70.13
2019-04-04T07:03:39.847Z,69.63
2019-04-04T07:06:10.214Z,69.27
2019-04-04T07:08:38.703Z,68.92
2019-04-04T07:11:20.631Z,68.62
2019-04-04T07:13:42.559Z,68.49
2019-04-04T07:16:08.305Z,68.81
2019-04-04T07:18:36.855Z,69.76
2019-04-04T07:21:05.470Z,70.57
2019-04-04T07:23:34.096Z,68.20
2019-04-04T07:26:02.963Z,67.55
2019-04-04T07:28:31.509Z,66.09
2019-04-04T07:31:01.771Z,65.92
2019-04-04T07:33:30.541Z,66.17
2019-04-04T07:35:59.113Z,67.75
2019-04-04T07:38:28.697Z,67.51
2019-04-04T07:40:57.934Z,67.37
2019-04-04T07:43:26.507Z,66.96
2019-04-04T07:45:57.442Z,66.49
2019-04-04T07:48:28.453Z,66.10
2019-04-04T07:50:58.549Z,65.50
2019-04-04T07:53:28.322Z,65.88
2019-04-04T07:55:56.943Z,67.70
2019-04-04T07:58:26.510Z,65.59
2019-04-04T08:00:55.134Z,65.04
2019-04-04T08:03:23.726Z,63.94
2019-04-04T08:05:52.342Z,63.21
2019-04-04T08:08:20.947Z,64.54
2019-04-04T08:10:49.566Z,65.54
2019-04-04T08:13:18.089Z,65.68
2019-04-04T08:15:46.619Z,65.40
2019-04-04T08:18:15.125Z,63.77
2019-04-04T08:20:43.721Z,63.89
2019-04-04T08:23:12.305Z,64.08
2019-04-04T08:25:40.900Z,64.01
2019-04-04T08:28:09.526Z,64.14
2019-04-04T08:30:38.105Z,64.65
2019-04-04T08:33:06.732Z,62.85
2019-04-04T08:35:35.217Z,62.48
2019-04-04T08:38:03.751Z,61.64
2019-04-04T08:40:32.389Z,61.86
2019-04-04T08:43:00.984Z,61.23
2019-04-04T08:45:29.638Z,62.14
2019-04-04T08:47:58.207Z,62.61
2019-04-04T08:50:27.404Z,61.92
2019-04-04T08:52:55.935Z,61.94
2019-04-04T08:55:24.548Z,62.13
2019-04-04T08:57:53.074Z,61.96
2019-04-04T09:00:21.684Z,61.92
2019-04-04T09:02:50.275Z,61.82
2019-04-04T09:05:18.903Z,63.37
2019-04-04T09:07:47.424Z,63.30
2019-04-04T09:10:16.235Z,61.16
2019-04-04T09:12:44.882Z,61.12
2019-04-04T09:15:16.008Z,60.96
2019-04-04T09:17:44.615Z,60.76
2019-04-04T09:20:13.426Z,60.42
2019-04-04T09:22:41.958Z,60.73
2019-04-04T09:25:11.129Z,61.65
2019-04-04T09:27:39.772Z,61.49
2019-04-04T09:30:10.632Z,62.18
2019-04-04T09:32:39.252Z,62.13
2019-04-04T09:35:08.337Z,61.40
2019-04-04T09:37:36.954Z,60.66
2019-04-04T09:40:07.381Z,61.17
2019-04-04T09:42:36.605Z,63.56
2019-04-04T09:45:07.734Z,60.73
2019-04-04T09:47:36.353Z,59.29
2019-04-04T09:50:06.533Z,60.11
2019-04-04T09:52:35.091Z,59.96
2019-04-04T09:55:07.215Z,59.42
2019-04-04T09:57:35.735Z,59.08
2019-04-04T10:00:13.108Z,59.75
2019-04-04T10:02:41.808Z,59.73
2019-04-04T10:05:11.229Z,60.48
2019-04-04T10:07:39.823Z,60.13
2019-04-04T10:10:09.241Z,60.75
2019-04-04T10:12:37.819Z,60.74
2019-04-04T10:15:07.917Z,60.83
2019-04-04T10:17:36.450Z,63.48
2019-04-04T10:20:07.213Z,61.12
2019-04-04T10:22:35.842Z,60.78
2019-04-04T10:25:05.256Z,60.92
2019-04-04T10:27:33.766Z,60.58
2019-04-04T10:30:02.488Z,61.54
2019-04-04T10:32:31.884Z,61.65
2019-04-04T10:35:00.361Z,62.70
2019-04-04T10:37:29.898Z,62.05
2019-04-04T10:39:59.051Z,61.46
2019-04-04T10:42:27.519Z,60.90
2019-04-04T10:44:56.153Z,61.08
2019-04-04T10:47:24.769Z,61.14
2019-04-04T10:49:53.428Z,62.20
2019-04-04T10:52:22.052Z,67.47
2019-04-04T10:54:50.679Z,64.16
2019-04-04T10:57:19.367Z,62.41
2019-04-04T10:59:47.938Z,62.24
2019-04-04T11:02:16.569Z,61.88
2019-04-04T11:04:45.084Z,62.15
2019-04-04T11:07:13.652Z,61.98
2019-04-04T11:09:42.530Z,61.90
2019-04-04T11:12:11.205Z,62.42
2019-04-04T11:14:39.782Z,62.77
2019-04-04T11:17:08.338Z,62.36
2019-04-04T11:19:37.128Z,62.70
2019-04-04T11:22:05.899Z,62.28
2019-04-04T11:24:34.488Z,61.73
2019-04-04T11:27:03.240Z,61.52
2019-04-04T11:29:32.320Z,61.36
2019-04-04T11:32:00.951Z,59.66
2019-04-04T11:34:29.852Z,59.98
2019-04-04T11:36:58.473Z,59.40
2019-04-04T11:39:27.028Z,60.40
2019-04-04T11:41:55.625Z,60.74
2019-04-04T11:44:24.137Z,60.66
2019-04-04T11:46:52.687Z,60.39
2019-04-04T11:49:21.230Z,60.42
2019-04-04T11:51:49.838Z,60.70
2019-04-04T11:54:18.498Z,60.53
2019-04-04T11:56:47.117Z,61.50
2019-04-04T11:59:15.666Z,61.17
2019-04-04T12:01:45.840Z,60.91
2019-04-04T12:04:14.418Z,60.89
2019-04-04T12:06:42.998Z,60.42
2019-04-04T12:09:11.658Z,60.17
2019-04-04T12:11:40.643Z,60.02
2019-04-04T12:14:09.045Z,61.41
2019-04-04T12:16:37.649Z,61.35
2019-04-04T12:19:06.282Z,61.64
2019-04-04T12:21:34.890Z,62.33
2019-04-04T12:24:03.418Z,62.17
2019-04-04T12:26:32.046Z,62.00
2019-04-04T12:29:00.637Z,62.21
2019-04-04T12:31:29.926Z,62.21
2019-04-04T12:33:58.505Z,61.80
2019-04-04T12:36:26.993Z,62.00
2019-04-04T12:38:55.505Z,65.31
2019-04-04T12:41:24.042Z,62.51
2019-04-04T12:43:52.688Z,62.61
2019-04-04T12:46:21.273Z,62.42
2019-04-04T12:48:49.874Z,63.42
2019-04-04T12:51:18.505Z,61.66
2019-04-04T12:53:47.145Z,61.67
2019-04-04T12:56:15.722Z,62.26
2019-04-04T12:58:44.219Z,62.23
2019-04-04T13:01:12.822Z,62.31
2019-04-04T13:03:41.446Z,62.89
2019-04-04T13:06:10.023Z,62.51
2019-04-04T13:08:38.475Z,62.06
2019-04-04T13:11:07.366Z,62.34
2019-04-04T13:13:38.220Z,63.10
2019-04-04T13:16:06.369Z,64.11
2019-04-04T13:18:34.966Z,63.53
2019-04-04T13:21:03.578Z,62.99
2019-04-04T13:23:32.221Z,63.19
2019-04-04T13:26:01.676Z,62.28
2019-04-04T13:28:30.217Z,63.43
2019-04-04T13:30:58.765Z,63.89
2019-04-04T13:33:27.363Z,64.57
2019-04-04T13:35:55.876Z,64.10
2019-04-04T13:38:24.582Z,63.65
2019-04-04T13:40:53.163Z,63.54
2019-04-04T13:43:22.526Z,64.01
2019-04-04T13:45:51.800Z,64.09
2019-04-04T13:48:20.429Z,64.79
2019-04-04T13:50:49.143Z,64.40
2019-04-04T13:53:20.521Z,63.30
2019-04-04T13:55:48.152Z,62.58
2019-04-04T13:58:17.658Z,62.89
2019-04-04T14:00:47.286Z,62.92
2019-04-04T14:03:18.689Z,63.63
2019-04-04T14:05:46.275Z,62.82
2019-04-04T14:08:14.934Z,62.67
2019-04-04T14:10:43.648Z,63.34
2019-04-04T14:13:14.514Z,61.92
2019-04-04T14:15:42.627Z,62.62
2019-04-04T14:18:23.931Z,62.99
2019-04-04T14:21:03.398Z,63.29
2019-04-04T14:23:26.788Z,64.76
2019-04-04T14:25:55.462Z,66.05
2019-04-04T14:28:24.402Z,65.32
2019-04-04T14:30:53.058Z,64.38
2019-04-04T14:33:21.654Z,64.00
2019-04-04T14:35:50.306Z,64.82
2019-04-04T14:38:18.794Z,65.03
2019-04-04T14:40:47.450Z,64.86
2019-04-04T14:43:16.049Z,64.60
2019-04-04T14:45:44.697Z,65.60
2019-04-04T14:48:13.339Z,66.29
2019-04-04T14:50:41.866Z,65.66
2019-04-04T14:53:10.485Z,65.09
2019-04-04T14:55:39.119Z,65.15
2019-04-04T14:58:07.683Z,65.32
2019-04-04T15:00:36.262Z,68.77
2019-04-04T15:03:05.196Z,65.27
2019-04-04T15:05:33.753Z,62.93
2019-04-04T15:08:02.388Z,65.45
2019-04-04T15:10:30.979Z,63.48
2019-04-04T15:12:59.619Z,64.96
2019-04-04T15:15:28.254Z,66.64
2019-04-04T15:17:56.800Z,66.44
2019-04-04T15:20:25.425Z,65.17
2019-04-04T15:22:54.042Z,64.89
2019-04-04T15:25:22.723Z,65.45
2019-04-04T15:27:51.304Z,64.98
2019-04-04T15:30:20.036Z,64.92
2019-04-04T15:32:48.721Z,64.83
2019-04-04T15:35:17.410Z,65.41
2019-04-04T15:37:46.011Z,66.35
2019-04-04T15:40:14.793Z,65.81
2019-04-04T15:42:43.483Z,65.20
2019-04-04T15:45:12.214Z,63.40
2019-04-04T15:47:43.602Z,65.02
2019-04-04T15:50:12.282Z,65.25
2019-04-04T15:52:40.908Z,64.52
2019-04-04T15:55:09.703Z,63.89
2019-04-04T15:57:38.331Z,63.72
2019-04-04T16:00:08.606Z,63.48
2019-04-04T16:02:37.191Z,62.45
2019-04-04T16:05:07.518Z,62.99
2019-04-04T16:07:36.116Z,61.48
2019-04-04T16:10:07.189Z,61.62
2019-04-04T16:12:35.898Z,61.87
2019-04-04T16:15:06.945Z,60.72
2019-04-04T16:17:35.598Z,60.84
2019-04-04T16:20:07.156Z,61.68
2019-04-04T16:22:35.796Z,61.19
2019-04-04T16:25:06.488Z,60.43
2019-04-04T16:27:35.586Z,61.46
2019-04-04T16:30:08.504Z,61.21
2019-04-04T16:32:37.306Z,61.63
2019-04-04T16:35:06.533Z,61.40
2019-04-04T16:37:35.565Z,60.69
2019-04-04T16:40:09.255Z,60.48
2019-04-04T16:42:35.942Z,60.58
2019-04-04T16:45:07.661Z,60.21
2019-04-04T16:47:36.346Z,62.38
2019-04-04T16:50:07.350Z,60.39
2019-04-04T16:52:36.038Z,59.39
2019-04-04T16:55:06.728Z,59.91
2019-04-04T16:57:36.368Z,59.79
2019-04-04T17:00:07.872Z,60.01
2019-04-04T17:02:36.524Z,60.02
2019-04-04T17:05:05.889Z,60.50
2019-04-04T17:07:34.539Z,60.36
2019-04-04T17:10:03.896Z,60.12
2019-04-04T17:12:32.460Z,60.45
2019-04-04T17:15:01.037Z,61.47
2019-04-04T17:17:29.947Z,62.51
2019-04-04T17:19:58.552Z,63.32
2019-04-04T17:22:29.199Z,65.59
2019-04-04T17:24:57.482Z,62.33
2019-04-04T17:27:26.040Z,61.82
2019-04-04T17:29:54.638Z,63.30
2019-04-04T17:32:23.654Z,62.31
2019-04-04T17:34:52.498Z,61.82
2019-04-04T17:37:21.512Z,62.13
2019-04-04T17:39:50.203Z,63.26
2019-04-04T17:42:29.591Z,64.90
2019-04-04T17:44:51.751Z,66.25
2019-04-04T17:47:20.334Z,65.66
2019-04-04T17:49:49.238Z,64.92
2019-04-04T17:52:18.255Z,65.26
2019-04-04T17:54:46.906Z,66.11
2019-04-04T17:57:15.603Z,68.16
2019-04-04T17:59:44.311Z,69.11
2019-04-04T18:02:12.900Z,67.67
2019-04-04T18:04:48.126Z,66.61
2019-04-04T18:07:11.922Z,64.90
2019-04-04T18:09:40.491Z,64.23
2019-04-04T18:12:09.126Z,64.75
2019-04-04T18:14:37.740Z,66.51
2019-04-04T18:17:06.374Z,66.66
2019-04-04T18:19:35.063Z,66.87
2019-04-04T18:22:03.707Z,67.11
2019-04-04T18:24:32.300Z,66.53
2019-04-04T18:27:00.980Z,65.96
2019-04-04T18:29:29.856Z,66.57
2019-04-04T18:31:58.476Z,67.49
2019-04-04T18:34:27.068Z,70.42
2019-04-04T18:36:55.599Z,68.23
2019-04-04T18:39:26.449Z,67.44
2019-04-04T18:41:54.476Z,65.21
2019-04-04T18:44:23.079Z,65.50
2019-04-04T18:46:51.604Z,66.48
2019-04-04T18:49:20.233Z,67.60
2019-04-04T18:51:48.770Z,67.63
2019-04-04T18:54:17.306Z,67.01
2019-04-04T18:56:45.817Z,66.36
2019-04-04T18:59:14.437Z,65.75
2019-04-04T19:01:43.021Z,66.24
2019-04-04T19:04:11.642Z,66.67
2019-04-04T19:06:40.310Z,68.02
2019-04-04T19:09:15.059Z,73.25
2019-04-04T19:11:41.873Z,70.29
2019-04-04T19:14:10.473Z,68.78
2019-04-04T19:16:39.171Z,69.05
2019-04-04T19:19:08.540Z,67.18
2019-04-04T19:21:37.133Z,67.18
2019-04-04T19:24:05.694Z,67.98
2019-04-04T19:26:34.352Z,68.29
2019-04-04T19:29:02.960Z,68.31
2019-04-04T19:31:31.601Z,68.06
2019-04-04T19:34:00.215Z,68.66
2019-04-04T19:36:28.742Z,68.24
2019-04-04T19:38:57.258Z,68.96
2019-04-04T19:41:25.887Z,68.93
2019-04-04T19:43:54.522Z,70.13
2019-04-04T19:46:23.111Z,72.49
2019-04-04T19:48:51.732Z,68.19
2019-04-04T19:51:20.209Z,67.54
2019-04-04T19:53:48.913Z,68.04
2019-04-04T19:56:17.452Z,68.34
2019-04-04T19:58:46.096Z,69.21
2019-04-04T20:01:14.731Z,69.21
2019-04-04T20:03:43.367Z,69.32
2019-04-04T20:06:12.014Z,69.27
2019-04-04T20:08:40.638Z,69.02
2019-04-04T20:11:09.436Z,68.44
2019-04-04T20:13:38.031Z,68.50
2019-04-04T20:16:06.600Z,68.69
2019-04-04T20:18:35.267Z,68.49
2019-04-04T20:21:03.814Z,73.07
2019-04-04T20:23:32.439Z,70.59
2019-04-04T20:26:01.080Z,68.75
2019-04-04T20:28:29.608Z,67.52
2019-04-04T20:30:58.400Z,67.46
2019-04-04T20:33:26.951Z,69.18
2019-04-04T20:35:55.503Z,70.44
2019-04-04T20:38:24.093Z,69.65
2019-04-04T20:40:53.097Z,69.65
2019-04-04T20:43:21.686Z,69.25
2019-04-04T20:45:50.336Z,69.34
2019-04-04T20:48:18.975Z,70.43
2019-04-04T20:50:47.492Z,71.09
2019-04-04T20:53:16.072Z,70.55
2019-04-04T20:55:44.720Z,70.94
2019-04-04T20:58:13.299Z,72.88
2019-04-04T21:00:41.925Z,71.22
2019-04-04T21:03:10.580Z,71.22
2019-04-04T21:05:39.060Z,68.24
2019-04-04T21:08:07.569Z,68.58
2019-04-04T21:10:36.209Z,69.71
2019-04-04T21:13:04.791Z,70.18
2019-04-04T21:15:33.447Z,69.89
2019-04-04T21:18:02.010Z,69.63
2019-04-04T21:20:30.960Z,70.11
2019-04-04T21:22:59.574Z,70.06
2019-04-04T21:25:28.182Z,69.70
2019-04-04T21:27:56.719Z,69.16
2019-04-04T21:30:25.338Z,71.30
2019-04-04T21:32:53.848Z,73.93
2019-04-04T21:35:22.481Z,72.82
2019-04-04T21:37:51.068Z,71.37
2019-04-04T21:40:19.699Z,69.14
2019-04-04T21:42:48.360Z,68.51
2019-04-04T21:45:16.991Z,69.02
2019-04-04T21:47:45.595Z,70.42
2019-04-04T21:50:14.270Z,71.18
2019-04-04T21:52:42.825Z,70.07
2019-04-04T21:55:11.515Z,69.21
2019-04-04T21:57:40.804Z,69.46
2019-04-04T22:00:10.921Z,69.51
2019-04-04T22:02:39.552Z,69.53
2019-04-04T22:05:08.632Z,69.61
2019-04-04T22:07:37.211Z,71.64
2019-04-04T22:10:07.894Z,72.72
2019-04-04T22:12:36.535Z,71.61
2019-04-04T22:15:06.894Z,70.25
2019-04-04T22:17:35.513Z,68.38
2019-04-04T22:20:05.635Z,68.60
2019-04-04T22:22:34.263Z,70.21
2019-04-04T22:25:02.952Z,70.79
2019-04-04T22:27:31.458Z,71.56
2019-04-04T22:30:00.010Z,70.47
2019-04-04T22:32:28.530Z,69.89
2019-04-04T22:34:57.093Z,69.79
2019-04-04T22:37:25.596Z,69.64
2019-04-04T22:39:54.367Z,69.34
2019-04-04T22:42:23.046Z,71.66
2019-04-04T22:44:51.650Z,74.77
2019-04-04T22:47:20.279Z,73.00
2019-04-04T22:49:48.860Z,71.84
2019-04-04T22:52:17.414Z,70.32
2019-04-04T22:54:45.927Z,70.07
2019-04-04T22:57:14.463Z,71.73
2019-04-04T22:59:42.995Z,71.36
2019-04-04T23:02:12.422Z,70.62
2019-04-04T23:04:40.925Z,70.85
2019-04-04T23:07:09.384Z,71.33
2019-04-04T23:09:37.888Z,70.84
2019-04-04T23:12:06.446Z,70.86
2019-04-04T23:14:47.502Z,70.52
2019-04-04T23:17:05.378Z,69.98
2019-04-04T23:19:34.085Z,71.51
2019-04-04T23:22:02.671Z,74.42
2019-04-04T23:24:31.298Z,69.82
2019-04-04T23:26:59.784Z,68.61
2019-04-04T23:29:28.390Z,68.65
2019-04-04T23:31:56.977Z,71.06
2019-04-04T23:34:25.562Z,72.75
2019-04-04T23:36:54.078Z,72.67
2019-04-04T23:39:22.594Z,72.24
2019-04-04T23:41:51.210Z,71.13
2019-04-04T23:44:19.681Z,70.60
2019-04-04T23:46:48.301Z,71.01
2019-04-04T23:49:16.842Z,71.00
2019-04-04T23:51:45.474Z,70.46
2019-04-04T23:54:14.048Z,70.79
2019-04-04T23:56:43.055Z,73.43
2019-04-04T23:59:11.689Z,73.61
